sensor_id;sensor_type;location;lat;lon;timestamp;P1;durP1;ratioP1;P2;durP2;ratioP2
30249;SDS011;17064;47.974;13.826;2022-08-01T03:04:12;2.15;;;1.95;;
30249;SDS011;17064;47.974;13.826;2022-08-01T03:09:44;2.20;;;1.67;;
30249;SDS011;17064;47.974;13.826;2022-08-01T03:15:06;3.65;;;1.60;;
30249;SDS011;17064;47.974;13.826;2022-08-01T03:20:31;3.17;;;1.70;;
30249;SDS011;17064;47.974;13.826;2022-08-01T03:31:15;15.10;;;2.22;;
30249;SDS011;17064;47.974;13.826;2022-08-01T03:36:40;3.10;;;2.00;;
30249;SDS011;17064;47.974;13.826;2022-08-01T03:42:09;3.72;;;2.10;;
30249;SDS011;17064;47.974;13.826;2022-08-01T03:47:36;4.50;;;1.80;;
30249;SDS011;17064;47.974;13.826;2022-08-01T03:52:58;3.97;;;2.08;;
30249;SDS011;17064;47.974;13.826;2022-08-01T03:58:20;5.95;;;1.83;;
30249;SDS011;17064;47.974;13.826;2022-08-01T04:03:42;8.90;;;2.28;;
30249;SDS011;17064;47.974;13.826;2022-08-01T04:09:04;6.05;;;2.58;;
30249;SDS011;17064;47.974;13.826;2022-08-01T04:14:27;2.25;;;1.58;;
30249;SDS011;17064;47.974;13.826;2022-08-01T04:19:48;2.13;;;1.88;;
30249;SDS011;17064;47.974;13.826;2022-08-01T04:25:15;2.60;;;1.33;;
30249;SDS011;17064;47.974;13.826;2022-08-01T04:30:47;2.35;;;1.40;;
30249;SDS011;17064;47.974;13.826;2022-08-01T04:36:10;1.65;;;1.20;;
30249;SDS011;17064;47.974;13.826;2022-08-01T04:41:32;2.00;;;1.67;;
30249;SDS011;17064;47.974;13.826;2022-08-01T04:46:54;2.55;;;1.58;;
30249;SDS011;17064;47.974;13.826;2022-08-01T04:52:17;3.95;;;1.67;;
30249;SDS011;17064;47.974;13.826;2022-08-01T04:57:39;4.60;;;1.77;;
30249;SDS011;17064;47.974;13.826;2022-08-01T05:03:03;2.30;;;1.80;;
30249;SDS011;17064;47.974;13.826;2022-08-01T05:08:24;5.10;;;1.58;;
30249;SDS011;17064;47.974;13.826;2022-08-01T05:13:45;4.18;;;1.40;;
30249;SDS011;17064;47.974;13.826;2022-08-01T05:19:06;2.92;;;1.38;;
30249;SDS011;17064;47.974;13.826;2022-08-01T05:24:28;4.60;;;1.40;;
30249;SDS011;17064;47.974;13.826;2022-08-01T05:29:49;2.58;;;1.45;;
30249;SDS011;17064;47.974;13.826;2022-08-01T05:35:10;2.60;;;1.50;;
30249;SDS011;17064;47.974;13.826;2022-08-01T05:40:31;3.13;;;1.42;;
30249;SDS011;17064;47.974;13.826;2022-08-01T05:45:52;7.82;;;1.77;;
30249;SDS011;17064;47.974;13.826;2022-08-01T05:51:13;2.40;;;1.20;;
30249;SDS011;17064;47.974;13.826;2022-08-01T05:56:34;2.80;;;1.20;;
30249;SDS011;17064;47.974;13.826;2022-08-01T06:01:56;6.00;;;1.80;;
30249;SDS011;17064;47.974;13.826;2022-08-01T06:07:17;3.38;;;1.38;;
30249;SDS011;17064;47.974;13.826;2022-08-01T06:12:38;4.55;;;1.38;;
30249;SDS011;17064;47.974;13.826;2022-08-01T06:17:59;1.73;;;1.40;;
30249;SDS011;17064;47.974;13.826;2022-08-01T06:23:21;1.90;;;1.42;;
30249;SDS011;17064;47.974;13.826;2022-08-01T06:28:42;1.67;;;1.38;;
30249;SDS011;17064;47.974;13.826;2022-08-01T06:34:03;10.13;;;1.60;;
30249;SDS011;17064;47.974;13.826;2022-08-01T06:39:24;2.30;;;1.65;;
30249;SDS011;17064;47.974;13.826;2022-08-01T06:44:45;2.28;;;1.63;;
30249;SDS011;17064;47.974;13.826;2022-08-01T06:50:07;3.90;;;1.65;;
30249;SDS011;17064;47.974;13.826;2022-08-01T07:00:49;4.35;;;1.50;;
30249;SDS011;17064;47.974;13.826;2022-08-01T07:06:11;4.20;;;1.30;;
30249;SDS011;17064;47.974;13.826;2022-08-01T07:11:32;2.00;;;1.50;;
30249;SDS011;17064;47.974;13.826;2022-08-01T07:16:53;3.33;;;2.05;;
30249;SDS011;17064;47.974;13.826;2022-08-01T07:22:14;4.13;;;1.83;;
30249;SDS011;17064;47.974;13.826;2022-08-01T07:27:36;4.53;;;1.67;;
30249;SDS011;17064;47.974;13.826;2022-08-01T07:32:57;7.18;;;2.05;;
30249;SDS011;17064;47.974;13.826;2022-08-01T07:38:18;2.92;;;1.55;;
30249;SDS011;17064;47.974;13.826;2022-08-01T07:43:39;7.75;;;2.38;;
30249;SDS011;17064;47.974;13.826;2022-08-01T07:49:00;7.82;;;1.95;;
30249;SDS011;17064;47.974;13.826;2022-08-01T07:54:21;2.63;;;1.80;;
30249;SDS011;17064;47.974;13.826;2022-08-01T07:59:44;3.58;;;1.70;;
30249;SDS011;17064;47.974;13.826;2022-08-01T08:05:05;2.58;;;1.83;;
30249;SDS011;17064;47.974;13.826;2022-08-01T08:10:27;3.13;;;1.80;;
30249;SDS011;17064;47.974;13.826;2022-08-01T08:15:48;5.00;;;1.67;;
30249;SDS011;17064;47.974;13.826;2022-08-01T08:21:09;4.80;;;2.00;;
30249;SDS011;17064;47.974;13.826;2022-08-01T08:26:30;3.78;;;1.60;;
30249;SDS011;17064;47.974;13.826;2022-08-01T08:31:51;4.93;;;1.80;;
30249;SDS011;17064;47.974;13.826;2022-08-01T08:37:13;2.83;;;2.10;;
30249;SDS011;17064;47.974;13.826;2022-08-01T08:42:34;3.25;;;2.00;;
30249;SDS011;17064;47.974;13.826;2022-08-01T08:47:56;3.77;;;1.60;;
30249;SDS011;17064;47.974;13.826;2022-08-01T08:53:17;4.73;;;2.10;;
30249;SDS011;17064;47.974;13.826;2022-08-01T08:58:40;2.55;;;2.00;;
30249;SDS011;17064;47.974;13.826;2022-08-01T09:04:04;2.97;;;2.03;;
30249;SDS011;17064;47.974;13.826;2022-08-01T09:09:25;3.37;;;2.27;;
30249;SDS011;17064;47.974;13.826;2022-08-01T09:14:46;3.65;;;1.85;;
30249;SDS011;17064;47.974;13.826;2022-08-01T09:20:21;6.22;;;2.17;;
30249;SDS011;17064;47.974;13.826;2022-08-01T09:25:52;2.17;;;1.83;;
30249;SDS011;17064;47.974;13.826;2022-08-01T09:31:17;6.22;;;2.30;;
30249;SDS011;17064;47.974;13.826;2022-08-01T09:36:45;3.13;;;1.95;;
30249;SDS011;17064;47.974;13.826;2022-08-01T09:42:20;5.22;;;1.85;;
30249;SDS011;17064;47.974;13.826;2022-08-01T09:47:43;1.92;;;1.60;;
30249;SDS011;17064;47.974;13.826;2022-08-01T09:53:04;2.37;;;1.80;;
30249;SDS011;17064;47.974;13.826;2022-08-01T09:58:25;3.25;;;2.35;;
30249;SDS011;17064;47.974;13.826;2022-08-01T10:09:32;4.57;;;2.10;;
30249;SDS011;17064;47.974;13.826;2022-08-01T10:14:57;3.20;;;1.80;;
30249;SDS011;17064;47.974;13.826;2022-08-01T10:20:19;4.25;;;1.80;;
30249;SDS011;17064;47.974;13.826;2022-08-01T10:25:45;4.95;;;2.05;;
30249;SDS011;17064;47.974;13.826;2022-08-01T10:31:11;2.13;;;1.95;;
30249;SDS011;17064;47.974;13.826;2022-08-01T10:36:33;7.20;;;1.70;;
30249;SDS011;17064;47.974;13.826;2022-08-01T10:41:56;3.88;;;1.52;;
30249;SDS011;17064;47.974;13.826;2022-08-01T10:47:20;3.33;;;1.70;;
30249;SDS011;17064;47.974;13.826;2022-08-01T10:58:46;3.70;;;1.83;;
30249;SDS011;17064;47.974;13.826;2022-08-01T11:09:41;1.58;;;1.48;;
30249;SDS011;17064;47.974;13.826;2022-08-01T11:20:28;3.47;;;1.42;;
30249;SDS011;17064;47.974;13.826;2022-08-01T11:31:24;4.25;;;1.63;;
30249;SDS011;17064;47.974;13.826;2022-08-01T11:36:46;1.83;;;1.13;;
30249;SDS011;17064;47.974;13.826;2022-08-01T11:47:43;4.40;;;1.57;;
30249;SDS011;17064;47.974;13.826;2022-08-01T11:53:08;2.33;;;1.10;;
30249;SDS011;17064;47.974;13.826;2022-08-01T11:58:30;3.15;;;1.33;;
30249;SDS011;17064;47.974;13.826;2022-08-01T12:03:54;3.83;;;1.40;;
30249;SDS011;17064;47.974;13.826;2022-08-01T12:09:20;2.65;;;1.20;;
30249;SDS011;17064;47.974;13.826;2022-08-01T12:14:44;6.40;;;1.15;;
30249;SDS011;17064;47.974;13.826;2022-08-01T12:20:14;6.95;;;1.40;;
30249;SDS011;17064;47.974;13.826;2022-08-01T12:25:37;3.60;;;1.02;;
30249;SDS011;17064;47.974;13.826;2022-08-01T12:31:03;0.90;;;0.90;;
30249;SDS011;17064;47.974;13.826;2022-08-01T12:36:28;3.95;;;1.08;;
30249;SDS011;17064;47.974;13.826;2022-08-01T12:41:50;1.80;;;1.30;;
30249;SDS011;17064;47.974;13.826;2022-08-01T12:47:11;1.42;;;1.23;;
30249;SDS011;17064;47.974;13.826;2022-08-01T12:52:33;5.40;;;1.20;;
30249;SDS011;17064;47.974;13.826;2022-08-01T12:58:08;1.90;;;0.90;;
30249;SDS011;17064;47.974;13.826;2022-08-01T13:03:31;4.15;;;1.10;;
30249;SDS011;17064;47.974;13.826;2022-08-01T13:08:52;0.80;;;0.80;;
30249;SDS011;17064;47.974;13.826;2022-08-01T13:14:26;3.42;;;1.23;;
30249;SDS011;17064;47.974;13.826;2022-08-01T13:19:48;2.47;;;1.27;;
30249;SDS011;17064;47.974;13.826;2022-08-01T13:25:10;1.95;;;1.23;;
30249;SDS011;17064;47.974;13.826;2022-08-01T13:30:34;3.33;;;1.67;;
30249;SDS011;17064;47.974;13.826;2022-08-01T13:35:56;6.53;;;1.25;;
30249;SDS011;17064;47.974;13.826;2022-08-01T13:41:17;4.25;;;1.40;;
30249;SDS011;17064;47.974;13.826;2022-08-01T13:46:38;5.40;;;1.30;;
30249;SDS011;17064;47.974;13.826;2022-08-01T13:52:00;3.05;;;1.65;;
30249;SDS011;17064;47.974;13.826;2022-08-01T13:57:21;2.50;;;1.40;;
30249;SDS011;17064;47.974;13.826;2022-08-01T14:02:42;4.20;;;1.50;;
30249;SDS011;17064;47.974;13.826;2022-08-01T14:08:03;3.10;;;1.57;;
30249;SDS011;17064;47.974;13.826;2022-08-01T14:13:25;2.25;;;1.50;;
30249;SDS011;17064;47.974;13.826;2022-08-01T14:18:46;1.60;;;1.50;;
30249;SDS011;17064;47.974;13.826;2022-08-01T14:24:07;1.90;;;1.37;;
30249;SDS011;17064;47.974;13.826;2022-08-01T14:29:29;2.42;;;1.63;;
30249;SDS011;17064;47.974;13.826;2022-08-01T14:34:50;3.27;;;1.53;;
30249;SDS011;17064;47.974;13.826;2022-08-01T14:40:11;1.60;;;1.30;;
30249;SDS011;17064;47.974;13.826;2022-08-01T14:45:32;2.27;;;1.50;;
30249;SDS011;17064;47.974;13.826;2022-08-01T14:50:53;4.27;;;1.87;;
30249;SDS011;17064;47.974;13.826;2022-08-01T14:56:15;3.57;;;1.60;;
30249;SDS011;17064;47.974;13.826;2022-08-01T15:01:36;1.00;;;1.00;;
30249;SDS011;17064;47.974;13.826;2022-08-01T15:06:57;1.93;;;1.10;;
30249;SDS011;17064;47.974;13.826;2022-08-01T15:12:18;1.50;;;1.20;;
30249;SDS011;17064;47.974;13.826;2022-08-01T15:17:39;3.23;;;1.33;;
30249;SDS011;17064;47.974;13.826;2022-08-01T15:23:00;3.13;;;1.33;;
30249;SDS011;17064;47.974;13.826;2022-08-01T15:28:21;2.10;;;1.60;;
30249;SDS011;17064;47.974;13.826;2022-08-01T15:33:42;2.27;;;1.50;;
30249;SDS011;17064;47.974;13.826;2022-08-01T15:39:03;2.83;;;1.48;;
30249;SDS011;17064;47.974;13.826;2022-08-01T15:44:25;2.20;;;1.27;;
30249;SDS011;17064;47.974;13.826;2022-08-01T15:49:46;5.70;;;1.80;;
30249;SDS011;17064;47.974;13.826;2022-08-01T15:55:07;4.53;;;1.33;;
30249;SDS011;17064;47.974;13.826;2022-08-01T16:00:29;2.50;;;1.42;;
30249;SDS011;17064;47.974;13.826;2022-08-01T16:05:50;4.00;;;1.42;;
30249;SDS011;17064;47.974;13.826;2022-08-01T16:11:11;2.95;;;1.17;;
30249;SDS011;17064;47.974;13.826;2022-08-01T16:16:32;1.45;;;1.17;;
30249;SDS011;17064;47.974;13.826;2022-08-01T16:21:53;3.25;;;1.23;;
30249;SDS011;17064;47.974;13.826;2022-08-01T16:27:14;2.28;;;1.38;;
30249;SDS011;17064;47.974;13.826;2022-08-01T16:32:35;1.80;;;1.23;;
30249;SDS011;17064;47.974;13.826;2022-08-01T16:37:56;1.77;;;1.10;;
30249;SDS011;17064;47.974;13.826;2022-08-01T16:43:18;3.80;;;1.30;;
30249;SDS011;17064;47.974;13.826;2022-08-01T16:48:39;4.10;;;2.05;;
30249;SDS011;17064;47.974;13.826;2022-08-01T16:54:01;1.63;;;0.88;;
30249;SDS011;17064;47.974;13.826;2022-08-01T16:59:22;4.53;;;1.20;;
30249;SDS011;17064;47.974;13.826;2022-08-01T17:04:43;1.48;;;1.20;;
30249;SDS011;17064;47.974;13.826;2022-08-01T17:10:05;4.80;;;1.40;;
30249;SDS011;17064;47.974;13.826;2022-08-01T17:15:26;2.35;;;1.27;;
30249;SDS011;17064;47.974;13.826;2022-08-01T17:20:48;2.35;;;1.20;;
30249;SDS011;17064;47.974;13.826;2022-08-01T17:26:10;1.42;;;1.30;;
30249;SDS011;17064;47.974;13.826;2022-08-01T17:31:32;4.80;;;1.50;;
30249;SDS011;17064;47.974;13.826;2022-08-01T17:36:53;3.13;;;1.45;;
30249;SDS011;17064;47.974;13.826;2022-08-01T17:42:14;3.67;;;1.35;;
30249;SDS011;17064;47.974;13.826;2022-08-01T17:47:35;22.48;;;1.83;;
30249;SDS011;17064;47.974;13.826;2022-08-01T17:52:57;2.55;;;1.08;;
30249;SDS011;17064;47.974;13.826;2022-08-01T17:58:18;1.50;;;1.40;;
30249;SDS011;17064;47.974;13.826;2022-08-01T18:03:39;2.45;;;1.17;;
30249;SDS011;17064;47.974;13.826;2022-08-01T18:09:01;2.65;;;1.35;;
30249;SDS011;17064;47.974;13.826;2022-08-01T18:14:22;4.43;;;1.60;;
30249;SDS011;17064;47.974;13.826;2022-08-01T18:19:43;4.25;;;1.50;;
30249;SDS011;17064;47.974;13.826;2022-08-01T18:25:04;4.07;;;1.60;;
30249;SDS011;17064;47.974;13.826;2022-08-01T18:30:26;3.50;;;1.57;;
30249;SDS011;17064;47.974;13.826;2022-08-01T18:35:47;2.05;;;1.33;;
30249;SDS011;17064;47.974;13.826;2022-08-01T18:41:09;3.03;;;1.50;;
30249;SDS011;17064;47.974;13.826;2022-08-01T18:46:30;3.03;;;1.73;;
30249;SDS011;17064;47.974;13.826;2022-08-01T18:51:51;2.60;;;2.00;;
30249;SDS011;17064;47.974;13.826;2022-08-01T18:57:13;5.05;;;1.90;;
30249;SDS011;17064;47.974;13.826;2022-08-01T19:02:34;2.33;;;1.80;;
30249;SDS011;17064;47.974;13.826;2022-08-01T19:07:55;2.00;;;1.80;;
30249;SDS011;17064;47.974;13.826;2022-08-01T19:13:16;2.05;;;1.80;;
30249;SDS011;17064;47.974;13.826;2022-08-01T19:18:38;5.07;;;1.52;;
30249;SDS011;17064;47.974;13.826;2022-08-01T19:24:00;3.47;;;1.75;;
30249;SDS011;17064;47.974;13.826;2022-08-01T19:29:37;3.88;;;1.98;;
30249;SDS011;17064;47.974;13.826;2022-08-01T19:40:22;5.35;;;1.95;;
30249;SDS011;17064;47.974;13.826;2022-08-01T19:45:43;1.95;;;1.75;;
30249;SDS011;17064;47.974;13.826;2022-08-01T19:51:06;1.95;;;1.63;;
30249;SDS011;17064;47.974;13.826;2022-08-01T19:56:37;2.33;;;1.83;;
30249;SDS011;17064;47.974;13.826;2022-08-01T20:02:01;2.58;;;2.05;;
30249;SDS011;17064;47.974;13.826;2022-08-01T20:07:22;3.43;;;1.90;;
30249;SDS011;17064;47.974;13.826;2022-08-01T20:12:43;3.03;;;1.95;;
30249;SDS011;17064;47.974;13.826;2022-08-01T20:18:05;2.20;;;1.52;;
30249;SDS011;17064;47.974;13.826;2022-08-01T20:23:26;2.42;;;1.92;;
30249;SDS011;17064;47.974;13.826;2022-08-01T20:28:50;2.25;;;1.63;;
30249;SDS011;17064;47.974;13.826;2022-08-01T20:34:14;1.80;;;1.67;;
30249;SDS011;17064;47.974;13.826;2022-08-01T20:39:43;2.55;;;1.73;;
30249;SDS011;17064;47.974;13.826;2022-08-01T20:45:06;3.20;;;1.80;;
30249;SDS011;17064;47.974;13.826;2022-08-01T20:50:27;2.35;;;2.10;;
30249;SDS011;17064;47.974;13.826;2022-08-01T20:56:09;1.70;;;1.60;;
30249;SDS011;17064;47.974;13.826;2022-08-01T21:07:52;2.35;;;1.73;;
30249;SDS011;17064;47.974;13.826;2022-08-01T21:13:25;3.75;;;2.05;;
30249;SDS011;17064;47.974;13.826;2022-08-01T21:18:57;3.25;;;1.67;;
30249;SDS011;17064;47.974;13.826;2022-08-01T21:24:32;2.17;;;1.67;;
30249;SDS011;17064;47.974;13.826;2022-08-01T21:30:05;2.38;;;1.65;;
30249;SDS011;17064;47.974;13.826;2022-08-01T21:35:27;4.82;;;1.85;;
30249;SDS011;17064;47.974;13.826;2022-08-01T21:40:49;4.75;;;2.10;;
30249;SDS011;17064;47.974;13.826;2022-08-01T21:46:11;2.58;;;2.00;;
30249;SDS011;17064;47.974;13.826;2022-08-01T21:51:40;4.80;;;2.58;;
30249;SDS011;17064;47.974;13.826;2022-08-01T22:08:11;2.85;;;2.08;;
30249;SDS011;17064;47.974;13.826;2022-08-01T22:13:36;11.45;;;2.58;;
30249;SDS011;17064;47.974;13.826;2022-08-01T22:18:59;2.83;;;2.10;;
30249;SDS011;17064;47.974;13.826;2022-08-01T22:24:21;4.88;;;2.13;;
30249;SDS011;17064;47.974;13.826;2022-08-01T22:29:44;3.92;;;2.50;;
30249;SDS011;17064;47.974;13.826;2022-08-01T22:35:07;2.70;;;2.50;;
30249;SDS011;17064;47.974;13.826;2022-08-01T22:40:30;4.72;;;2.20;;
30249;SDS011;17064;47.974;13.826;2022-08-01T22:45:57;3.97;;;2.30;;
30249;SDS011;17064;47.974;13.826;2022-08-01T22:51:30;4.78;;;2.50;;
30249;SDS011;17064;47.974;13.826;2022-08-01T22:57:26;5.13;;;2.80;;
